createdAt,value
2022-08-16T00:01:22.183Z,1.23
2022-08-16T00:03:52.796Z,1.57
2022-08-16T00:06:19.932Z,1.30
2022-08-16T00:08:47.862Z,1.30
2022-08-16T00:11:16.580Z,1.40
2022-08-16T00:13:53.804Z,1.40
2022-08-16T00:17:01.375Z,1.33
2022-08-16T00:19:16.019Z,1.30
2022-08-16T00:21:43.856Z,1.40
2022-08-16T00:24:12.684Z,1.27
2022-08-16T00:26:44.552Z,1.67
2022-08-16T00:29:17.529Z,1.40
2022-08-16T00:32:00.335Z,1.30
2022-08-16T00:34:52.211Z,1.37
2022-08-16T00:37:18.719Z,1.50
2022-08-16T00:39:57.671Z,1.40
2022-08-16T00:42:30.558Z,1.50
2022-08-16T00:45:09.581Z,1.40
2022-08-16T00:47:49.141Z,1.67
2022-08-16T00:50:20.388Z,1.50
2022-08-16T00:52:51.479Z,1.50
2022-08-16T00:55:22.071Z,1.73
2022-08-16T00:57:58.837Z,1.53
2022-08-16T01:00:30.141Z,1.60
2022-08-16T01:02:59.586Z,1.37
2022-08-16T01:05:27.378Z,1.30
2022-08-16T01:07:55.055Z,1.50
2022-08-16T01:10:32.691Z,1.40
2022-08-16T01:13:08.440Z,1.40
2022-08-16T01:15:43.036Z,1.40
2022-08-16T01:18:39.465Z,1.40
2022-08-16T01:21:16.214Z,1.50
2022-08-16T01:24:52.687Z,1.43
2022-08-16T01:27:17.501Z,1.40
2022-08-16T01:29:58.196Z,1.60
2022-08-16T01:32:31.782Z,1.50
2022-08-16T01:35:05.896Z,1.40
2022-08-16T01:37:42.339Z,1.40
2022-08-16T01:40:09.991Z,1.60
2022-08-16T01:42:36.994Z,1.60
2022-08-16T01:45:09.319Z,1.50
2022-08-16T01:47:37.677Z,1.60
2022-08-16T01:50:42.143Z,1.50
2022-08-16T01:53:04.039Z,1.47
2022-08-16T01:55:35.703Z,1.87
2022-08-16T01:58:03.074Z,1.50
2022-08-16T02:00:30.018Z,1.40
2022-08-16T02:02:57.295Z,1.50
2022-08-16T02:05:24.229Z,1.83
2022-08-16T02:07:52.072Z,1.87
2022-08-16T02:10:20.751Z,1.73
2022-08-16T02:12:51.096Z,1.53
2022-08-16T02:15:26.002Z,1.50
2022-08-16T02:17:58.219Z,1.60
2022-08-16T02:20:27.955Z,1.67
2022-08-16T02:22:57.355Z,1.70
2022-08-16T02:25:24.964Z,1.50
2022-08-16T02:28:11.872Z,1.90
2022-08-16T02:30:50.499Z,1.70
2022-08-16T02:33:17.773Z,1.70
2022-08-16T02:35:49.857Z,1.87
2022-08-16T02:38:22.313Z,1.70
2022-08-16T02:40:49.070Z,1.90
2022-08-16T02:43:16.303Z,2.00
2022-08-16T02:45:43.570Z,1.67
2022-08-16T02:48:29.190Z,1.90
2022-08-16T02:51:10.345Z,1.70
2022-08-16T02:53:43.318Z,1.90
2022-08-16T02:56:12.315Z,1.57
2022-08-16T02:58:44.010Z,1.70
2022-08-16T03:01:24.988Z,2.00
2022-08-16T03:04:39.497Z,1.80
2022-08-16T03:06:47.212Z,1.70
2022-08-16T03:09:16.446Z,1.80
2022-08-16T03:11:44.764Z,1.70
2022-08-16T03:14:12.355Z,1.90
2022-08-16T03:16:42.165Z,1.80
2022-08-16T03:19:26.274Z,1.80
2022-08-16T03:22:12.994Z,1.87
2022-08-16T03:24:46.733Z,1.90
2022-08-16T03:27:13.737Z,1.73
2022-08-16T03:29:42.757Z,2.00
2022-08-16T03:32:21.290Z,1.83
2022-08-16T03:34:49.860Z,1.90
2022-08-16T03:37:17.299Z,1.90
2022-08-16T03:39:44.144Z,1.90
2022-08-16T03:42:10.932Z,2.03
2022-08-16T03:44:44.831Z,2.07
2022-08-16T03:47:19.088Z,1.90
2022-08-16T03:49:51.574Z,1.90
2022-08-16T03:52:20.215Z,1.80
2022-08-16T03:54:58.232Z,1.80
2022-08-16T03:57:31.625Z,1.90
2022-08-16T04:00:36.077Z,2.17
2022-08-16T04:03:08.701Z,2.00
2022-08-16T04:05:46.741Z,2.00
2022-08-16T04:08:23.241Z,2.00
2022-08-16T04:10:54.088Z,2.03
2022-08-16T04:14:01.188Z,2.20
2022-08-16T04:16:27.245Z,2.10
2022-08-16T04:19:02.400Z,2.10
2022-08-16T04:21:36.128Z,2.13
2022-08-16T04:24:12.987Z,2.20
2022-08-16T04:26:42.593Z,2.00
2022-08-16T04:29:16.432Z,2.00
2022-08-16T04:31:56.341Z,2.10
2022-08-16T04:34:27.911Z,2.20
2022-08-16T04:36:56.621Z,2.20
2022-08-16T04:39:24.383Z,1.80
2022-08-16T04:42:10.987Z,1.90
2022-08-16T04:44:53.350Z,2.10
2022-08-16T04:47:31.602Z,2.10
2022-08-16T04:50:00.884Z,2.17
2022-08-16T04:52:33.112Z,2.30
2022-08-16T04:55:11.754Z,1.93
2022-08-16T04:57:39.449Z,2.27
2022-08-16T05:00:30.561Z,2.20
2022-08-16T05:03:01.215Z,2.20
2022-08-16T05:05:32.721Z,2.30
2022-08-16T05:08:00.665Z,2.07
2022-08-16T05:10:47.412Z,2.30
2022-08-16T05:13:17.456Z,2.40
2022-08-16T05:15:44.216Z,2.10
2022-08-16T05:18:15.856Z,1.93
2022-08-16T05:21:01.231Z,2.30
2022-08-16T05:23:31.767Z,2.30
2022-08-16T05:25:59.759Z,2.33
2022-08-16T05:28:30.937Z,2.07
2022-08-16T05:31:06.785Z,2.30
2022-08-16T05:33:33.771Z,2.03
2022-08-16T05:36:03.619Z,2.30
2022-08-16T05:38:39.047Z,2.33
2022-08-16T05:41:06.981Z,2.00
2022-08-16T05:43:43.238Z,1.93
2022-08-16T05:46:30.331Z,2.00
2022-08-16T05:49:08.511Z,2.37
2022-08-16T05:51:38.675Z,1.97
2022-08-16T05:54:07.895Z,2.00
2022-08-16T05:56:37.540Z,2.33
2022-08-16T05:59:06.079Z,2.20
2022-08-16T06:01:38.378Z,1.77
2022-08-16T06:04:13.259Z,2.40
2022-08-16T06:06:55.865Z,2.20
2022-08-16T06:09:42.933Z,2.03
2022-08-16T06:12:12.227Z,2.00
2022-08-16T06:14:40.077Z,2.40
2022-08-16T06:17:07.341Z,2.47
2022-08-16T06:19:35.681Z,2.10
2022-08-16T06:22:02.754Z,1.80
2022-08-16T06:24:53.550Z,1.87
2022-08-16T06:27:16.396Z,2.20
2022-08-16T06:29:44.676Z,2.10
2022-08-16T06:32:27.126Z,1.93
2022-08-16T06:35:01.870Z,2.23
2022-08-16T06:37:37.610Z,1.90
2022-08-16T06:40:12.739Z,2.20
2022-08-16T06:42:47.882Z,2.20
2022-08-16T06:45:15.397Z,2.50
2022-08-16T06:47:54.286Z,2.40
2022-08-16T06:50:28.699Z,2.43
2022-08-16T06:53:00.449Z,2.25
2022-08-16T06:55:34.365Z,2.50
2022-08-16T06:58:02.019Z,2.20
2022-08-16T07:00:35.603Z,2.30
2022-08-16T07:03:27.183Z,2.60
2022-08-16T07:05:53.897Z,2.30
2022-08-16T07:08:21.036Z,2.40
2022-08-16T07:10:47.827Z,2.40
2022-08-16T07:13:19.853Z,2.60
2022-08-16T07:16:03.870Z,2.50
2022-08-16T07:18:32.679Z,2.60
2022-08-16T07:21:02.003Z,2.73
2022-08-16T07:23:37.270Z,2.60
2022-08-16T07:26:08.585Z,2.10
2022-08-16T07:28:35.554Z,2.73
2022-08-16T07:31:03.364Z,2.60
2022-08-16T07:33:53.801Z,2.70
2022-08-16T07:36:22.051Z,2.50
2022-08-16T07:38:49.986Z,2.30
2022-08-16T07:41:18.621Z,2.53
2022-08-16T07:43:46.294Z,2.50
2022-08-16T07:46:38.384Z,2.70
2022-08-16T07:49:03.030Z,2.63
2022-08-16T07:51:36.937Z,2.60
2022-08-16T07:54:10.015Z,2.60
2022-08-16T07:56:38.136Z,3.00
2022-08-16T07:59:06.688Z,2.60
2022-08-16T08:01:34.713Z,2.67
2022-08-16T08:04:05.287Z,3.00
2022-08-16T08:06:33.110Z,2.90
2022-08-16T08:09:00.814Z,2.97
2022-08-16T08:11:29.410Z,2.67
2022-08-16T08:14:03.621Z,2.80
2022-08-16T08:16:33.697Z,3.13
2022-08-16T08:19:03.292Z,2.80
2022-08-16T08:22:00.009Z,2.90
2022-08-16T08:24:21.550Z,2.90
2022-08-16T08:26:50.045Z,2.90
2022-08-16T08:29:22.850Z,2.63
2022-08-16T08:31:52.218Z,2.50
2022-08-16T08:34:21.154Z,2.88
2022-08-16T08:36:50.117Z,2.60
2022-08-16T08:39:21.952Z,3.17
2022-08-16T08:41:49.523Z,2.50
2022-08-16T08:44:27.966Z,3.25
2022-08-16T08:47:03.251Z,2.70
2022-08-16T08:49:47.007Z,2.53
2022-08-16T08:52:34.128Z,2.70
2022-08-16T08:55:10.288Z,2.97
2022-08-16T08:57:41.013Z,2.97
2022-08-16T09:00:13.571Z,2.72
2022-08-16T09:02:45.657Z,2.90
2022-08-16T09:05:20.579Z,2.92
2022-08-16T09:08:00.657Z,2.70
2022-08-16T09:10:30.867Z,2.33
2022-08-16T09:12:59.199Z,3.30
2022-08-16T09:15:33.058Z,2.88
2022-08-16T09:18:02.148Z,2.40
2022-08-16T09:20:58.478Z,2.70
2022-08-16T09:23:36.721Z,2.67
2022-08-16T09:26:44.383Z,2.47
2022-08-16T09:29:16.278Z,2.58
2022-08-16T09:31:42.820Z,2.80
2022-08-16T09:34:10.525Z,2.30
2022-08-16T09:36:46.045Z,2.60
2022-08-16T09:39:16.035Z,2.67
2022-08-16T09:41:53.319Z,2.40
2022-08-16T09:45:10.953Z,2.83
2022-08-16T09:47:10.148Z,2.53
2022-08-16T09:49:37.598Z,2.72
2022-08-16T09:52:09.480Z,2.75
2022-08-16T09:54:37.803Z,2.85
2022-08-16T09:57:04.944Z,2.80
2022-08-16T09:59:38.538Z,2.92
2022-08-16T10:02:23.006Z,2.50
2022-08-16T10:04:55.041Z,2.88
2022-08-16T10:07:23.020Z,2.95
2022-08-16T10:09:54.752Z,3.00
2022-08-16T10:12:57.205Z,3.10
2022-08-16T10:15:25.290Z,2.72
2022-08-16T10:18:01.087Z,2.28
2022-08-16T10:20:32.467Z,2.70
2022-08-16T10:23:06.861Z,2.20
2022-08-16T10:27:16.380Z,2.63
2022-08-16T10:28:30.007Z,2.30
2022-08-16T10:31:04.184Z,2.65
2022-08-16T10:33:40.277Z,2.40
2022-08-16T10:36:08.805Z,2.63
2022-08-16T10:38:38.400Z,2.65
2022-08-16T10:41:07.294Z,2.55
2022-08-16T10:43:36.040Z,2.85
2022-08-16T10:46:04.066Z,2.88
2022-08-16T10:48:50.806Z,2.70
2022-08-16T10:51:18.795Z,2.63
2022-08-16T10:53:45.910Z,2.65
2022-08-16T10:56:52.043Z,2.67
2022-08-16T11:02:21.786Z,2.35
2022-08-16T11:12:56.460Z,2.60
2022-08-16T11:15:24.509Z,2.70
2022-08-16T11:20:49.297Z,2.60
2022-08-16T11:23:17.342Z,2.67
2022-08-16T11:26:07.725Z,2.38
2022-08-16T11:31:19.746Z,2.38
2022-08-16T11:33:53.661Z,2.63
2022-08-16T11:36:25.124Z,3.00
2022-08-16T11:38:57.215Z,2.50
2022-08-16T11:41:25.635Z,2.50
2022-08-16T11:43:56.123Z,2.20
2022-08-16T11:46:45.209Z,2.42
2022-08-16T11:49:13.844Z,2.50
2022-08-16T11:51:44.361Z,2.33
2022-08-16T11:54:21.499Z,2.33
2022-08-16T11:56:56.885Z,2.30
2022-08-16T11:59:28.562Z,2.30
2022-08-16T12:01:59.705Z,2.40
2022-08-16T12:04:29.202Z,2.33
2022-08-16T12:06:57.336Z,2.47
2022-08-16T12:09:24.722Z,2.50
2022-08-16T12:11:53.033Z,2.05
2022-08-16T12:14:23.117Z,2.40
2022-08-16T12:16:57.748Z,2.20
2022-08-16T12:19:35.563Z,2.50
2022-08-16T12:22:05.543Z,2.20
2022-08-16T12:24:34.129Z,2.20
2022-08-16T12:27:02.587Z,2.05
2022-08-16T12:29:30.055Z,2.03
2022-08-16T12:32:01.353Z,2.20
2022-08-16T12:34:50.871Z,2.47
2022-08-16T12:37:20.898Z,2.17
2022-08-16T12:39:51.330Z,2.28
2022-08-16T12:42:20.432Z,2.40
2022-08-16T12:44:49.511Z,2.30
2022-08-16T12:47:36.896Z,2.33
2022-08-16T12:50:07.657Z,2.40
2022-08-16T12:52:44.512Z,2.10
2022-08-16T12:55:20.951Z,2.47
2022-08-16T12:57:58.400Z,2.08
2022-08-16T13:00:33.551Z,2.00
2022-08-16T13:03:02.190Z,2.22
2022-08-16T13:07:58.836Z,1.80
2022-08-16T13:10:37.942Z,2.03
2022-08-16T13:13:09.110Z,2.20
2022-08-16T13:15:51.602Z,2.35
2022-08-16T13:18:33.909Z,1.98
2022-08-16T13:21:06.068Z,1.92
2022-08-16T13:23:33.698Z,1.92
2022-08-16T13:26:03.511Z,2.20
2022-08-16T13:28:30.301Z,2.17
2022-08-16T13:30:58.586Z,2.00
2022-08-16T13:33:30.783Z,2.08
2022-08-16T13:36:01.177Z,2.00
2022-08-16T13:38:31.432Z,2.30
2022-08-16T13:41:05.963Z,2.00
2022-08-16T13:43:37.183Z,1.95
2022-08-16T13:46:05.041Z,2.03
2022-08-16T13:48:42.730Z,1.85
2022-08-16T13:51:17.537Z,1.90
2022-08-16T13:53:59.758Z,2.10
2022-08-16T13:56:36.781Z,1.90
2022-08-16T13:59:14.286Z,1.70
2022-08-16T14:01:55.710Z,2.03
2022-08-16T14:04:32.618Z,2.20
2022-08-16T14:07:01.987Z,2.33
2022-08-16T14:09:32.074Z,2.38
2022-08-16T14:12:00.886Z,1.98
2022-08-16T14:14:30.043Z,2.00
2022-08-16T14:17:03.313Z,2.25
2022-08-16T14:19:31.071Z,2.20
2022-08-16T14:22:14.492Z,2.28
2022-08-16T14:24:46.635Z,2.58
2022-08-16T14:27:17.930Z,2.03
2022-08-16T14:29:49.374Z,2.00
2022-08-16T14:32:27.100Z,2.40
2022-08-16T14:35:07.141Z,2.33
2022-08-16T14:37:35.083Z,1.90
2022-08-16T14:40:03.077Z,2.40
2022-08-16T14:42:30.522Z,2.20
2022-08-16T14:44:57.364Z,2.28
2022-08-16T14:47:34.252Z,2.17
2022-08-16T14:50:02.066Z,2.20
2022-08-16T14:52:52.374Z,1.90
2022-08-16T14:55:18.030Z,2.47
2022-08-16T14:57:47.426Z,2.35
2022-08-16T15:00:15.767Z,2.22
2022-08-16T15:02:44.902Z,1.90
2022-08-16T15:05:13.087Z,2.42
2022-08-16T15:07:41.324Z,2.10
2022-08-16T15:10:12.057Z,2.10
2022-08-16T15:12:55.517Z,2.65
2022-08-16T15:15:25.580Z,2.45
2022-08-16T15:17:54.147Z,2.15
2022-08-16T15:20:26.258Z,2.22
2022-08-16T15:22:53.890Z,2.47
2022-08-16T15:25:31.760Z,2.30
2022-08-16T15:28:04.538Z,2.30
2022-08-16T15:30:57.609Z,2.08
2022-08-16T15:33:24.608Z,2.25
2022-08-16T15:35:55.511Z,2.38
2022-08-16T15:38:54.728Z,2.30
2022-08-16T15:41:47.812Z,2.25
2022-08-16T15:44:22.112Z,2.50
2022-08-16T15:46:56.510Z,2.20
2022-08-16T15:49:34.632Z,2.08
2022-08-16T15:52:10.567Z,2.10
2022-08-16T15:54:51.482Z,2.35
2022-08-16T15:57:21.402Z,2.08
2022-08-16T15:59:52.441Z,2.80
2022-08-16T16:02:29.526Z,2.33
2022-08-16T16:05:01.692Z,2.30
2022-08-16T16:07:30.914Z,2.17
2022-08-16T16:10:02.534Z,2.47
2022-08-16T16:12:52.910Z,2.15
2022-08-16T16:15:19.045Z,2.15
2022-08-16T16:17:51.305Z,2.30
2022-08-16T16:20:21.406Z,2.40
2022-08-16T16:22:49.352Z,2.28
2022-08-16T16:25:17.789Z,2.20
2022-08-16T16:27:45.621Z,2.42
2022-08-16T16:30:37.509Z,2.60
2022-08-16T16:33:01.115Z,2.33
2022-08-16T16:35:32.726Z,2.30
2022-08-16T16:38:00.170Z,2.42
2022-08-16T16:40:32.269Z,2.50
2022-08-16T16:43:00.018Z,2.28
2022-08-16T16:45:34.902Z,2.42
2022-08-16T16:48:12.785Z,2.20
2022-08-16T16:50:44.647Z,2.38
2022-08-16T16:53:17.320Z,2.42
2022-08-16T16:55:47.768Z,2.50
2022-08-16T16:58:43.395Z,2.60
2022-08-16T17:01:20.434Z,2.20
2022-08-16T17:03:53.688Z,2.65
2022-08-16T17:06:20.866Z,2.30
2022-08-16T17:08:47.831Z,2.20
2022-08-16T17:11:18.617Z,2.50
2022-08-16T17:13:46.161Z,2.40
2022-08-16T17:16:18.469Z,2.30
2022-08-16T17:19:17.152Z,2.35
2022-08-16T17:21:34.402Z,2.58
2022-08-16T17:24:18.282Z,2.60
2022-08-16T17:26:49.172Z,2.83
2022-08-16T17:29:34.766Z,2.38
2022-08-16T17:32:33.830Z,2.33
2022-08-16T17:35:02.374Z,2.70
2022-08-16T17:37:49.729Z,2.38
2022-08-16T17:40:47.959Z,2.30
2022-08-16T17:43:15.255Z,2.38
2022-08-16T17:45:42.920Z,2.40
2022-08-16T17:48:09.894Z,2.42
2022-08-16T17:50:37.467Z,2.45
2022-08-16T17:53:07.314Z,2.20
2022-08-16T17:55:37.455Z,2.30
2022-08-16T17:58:10.554Z,2.20
2022-08-16T18:00:54.529Z,4.30
2022-08-16T18:04:03.234Z,4.30
2022-08-16T18:06:15.545Z,3.30
2022-08-16T18:08:42.774Z,2.78
2022-08-16T18:11:13.357Z,2.40
2022-08-16T18:13:42.974Z,2.60
2022-08-16T18:16:11.291Z,2.70
2022-08-16T18:18:38.121Z,2.38
2022-08-16T18:21:23.577Z,2.50
2022-08-16T18:23:50.344Z,2.60
2022-08-16T18:26:17.271Z,3.00
2022-08-16T18:28:44.186Z,3.13
2022-08-16T18:31:10.922Z,2.80
2022-08-16T18:33:43.743Z,2.85
2022-08-16T18:36:21.183Z,2.92
2022-08-16T18:38:49.388Z,2.97
2022-08-16T18:41:16.938Z,3.15
2022-08-16T18:43:58.839Z,3.00
2022-08-16T18:46:30.524Z,3.28
2022-08-16T18:48:57.274Z,3.17
2022-08-16T18:51:25.495Z,3.15
2022-08-16T18:53:52.982Z,3.00
2022-08-16T18:56:19.806Z,3.08
2022-08-16T18:58:46.579Z,3.50
2022-08-16T19:01:13.559Z,3.10
2022-08-16T19:03:40.484Z,3.40
2022-08-16T19:06:13.983Z,3.30
2022-08-16T19:08:43.489Z,3.83
2022-08-16T19:11:14.059Z,3.30
2022-08-16T19:13:44.160Z,3.35
2022-08-16T19:16:12.179Z,3.40
2022-08-16T19:18:39.053Z,3.83
2022-08-16T19:21:07.147Z,3.90
2022-08-16T19:23:40.271Z,3.80
2022-08-16T19:26:24.370Z,3.53
2022-08-16T19:28:58.426Z,3.60
2022-08-16T19:31:30.265Z,4.10
2022-08-16T19:33:58.070Z,3.40
2022-08-16T19:36:35.994Z,3.63
2022-08-16T19:39:08.806Z,3.67
2022-08-16T19:41:37.551Z,3.27
2022-08-16T19:44:05.788Z,3.67
2022-08-16T19:46:33.107Z,3.80
2022-08-16T19:49:00.172Z,3.50
2022-08-16T19:51:27.298Z,3.70
2022-08-16T19:53:54.224Z,3.70
2022-08-16T19:56:23.112Z,4.00
2022-08-16T19:59:16.405Z,3.87
2022-08-16T20:01:41.882Z,4.00
2022-08-16T20:04:13.137Z,3.90
2022-08-16T20:06:41.452Z,4.00
2022-08-16T20:09:10.468Z,3.17
2022-08-16T20:11:46.412Z,3.93
2022-08-16T20:14:20.123Z,3.90
2022-08-16T20:16:51.906Z,4.00
2022-08-16T20:19:19.140Z,3.83
2022-08-16T20:21:46.196Z,4.00
2022-08-16T20:24:32.633Z,4.00
2022-08-16T20:26:59.850Z,3.70
2022-08-16T20:29:27.883Z,4.03
2022-08-16T20:31:54.709Z,4.00
2022-08-16T20:34:21.430Z,4.10
2022-08-16T20:36:48.148Z,4.13
2022-08-16T20:39:14.952Z,4.20
2022-08-16T20:41:43.034Z,4.00
2022-08-16T20:44:10.805Z,5.23
2022-08-16T20:46:39.132Z,4.10
2022-08-16T20:49:08.928Z,4.30
2022-08-16T20:51:46.873Z,4.10
2022-08-16T20:54:16.880Z,4.50
2022-08-16T20:56:43.611Z,3.83
2022-08-16T20:59:10.317Z,4.10
2022-08-16T21:01:49.606Z,4.43
2022-08-16T21:04:19.652Z,3.70
2022-08-16T21:06:53.210Z,4.23
2022-08-16T21:09:27.076Z,4.03
2022-08-16T21:11:55.631Z,4.10
2022-08-16T21:14:23.657Z,4.00
2022-08-16T21:16:50.620Z,4.00
2022-08-16T21:19:17.982Z,4.10
2022-08-16T21:21:44.735Z,4.30
2022-08-16T21:24:11.744Z,4.23
2022-08-16T21:26:39.075Z,3.90
2022-08-16T21:29:07.753Z,4.60
2022-08-16T21:31:39.455Z,4.10
2022-08-16T21:34:06.693Z,4.20
2022-08-16T21:36:35.665Z,4.40
2022-08-16T21:39:05.611Z,4.03
2022-08-16T21:41:33.043Z,4.47
2022-08-16T21:43:59.790Z,4.07
2022-08-16T21:46:26.531Z,4.23
2022-08-16T21:48:53.384Z,4.00
2022-08-16T21:51:20.868Z,4.27
2022-08-16T21:53:47.651Z,4.50
2022-08-16T21:56:17.342Z,4.07
2022-08-16T21:58:52.709Z,3.90
2022-08-16T22:01:22.204Z,4.30
2022-08-16T22:03:49.743Z,4.17
2022-08-16T22:06:38.044Z,4.20
2022-08-16T22:09:06.363Z,4.10
2022-08-16T22:11:33.737Z,4.33
2022-08-16T22:14:00.926Z,4.53
2022-08-16T22:16:29.822Z,5.27
2022-08-16T22:18:56.747Z,3.90
2022-08-16T22:21:23.853Z,4.70
2022-08-16T22:23:55.258Z,4.70
2022-08-16T22:26:30.888Z,4.10
2022-08-16T22:29:04.564Z,4.20
2022-08-16T22:31:32.227Z,4.27
2022-08-16T22:33:59.319Z,4.30
2022-08-16T22:36:28.484Z,4.23
2022-08-16T22:38:58.695Z,4.30
2022-08-16T22:41:27.358Z,4.40
2022-08-16T22:43:54.191Z,4.57
2022-08-16T22:46:20.967Z,4.63
2022-08-16T22:48:50.282Z,4.43
2022-08-16T22:51:19.027Z,4.30
2022-08-16T22:53:46.256Z,4.57
2022-08-16T22:56:13.164Z,4.60
2022-08-16T22:58:39.891Z,4.40
2022-08-16T23:01:09.012Z,4.17
2022-08-16T23:03:37.141Z,4.17
2022-08-16T23:06:04.979Z,4.47
2022-08-16T23:08:39.022Z,4.30
2022-08-16T23:11:19.402Z,4.10
2022-08-16T23:13:52.762Z,4.57
2022-08-16T23:16:33.062Z,4.33
2022-08-16T23:19:08.037Z,4.37
2022-08-16T23:21:37.224Z,4.43
2022-08-16T23:24:06.187Z,4.17
2022-08-16T23:26:46.829Z,4.27
2022-08-16T23:29:26.518Z,4.50
2022-08-16T23:32:08.452Z,4.40
2022-08-16T23:34:35.228Z,4.20
2022-08-16T23:37:02.043Z,4.87
2022-08-16T23:39:29.402Z,4.50
2022-08-16T23:41:56.400Z,4.20
2022-08-16T23:44:55.974Z,4.73
2022-08-16T23:47:09.966Z,4.30
2022-08-16T23:49:57.071Z,4.20
2022-08-16T23:52:42.337Z,4.03
2022-08-16T23:55:10.569Z,4.20
2022-08-16T23:57:37.443Z,4.37
